Gastonia, NC

4:36 AM EDT on October 26, 2014 (GMT -0400)
Rock Hill-York County-Bryant | Change Station
CLOSE
Current Station
Airport
Location: Rock Hill,
Elevation: 666 ft
Nearby Weather Stations

Elev 666 ft 34.99 °N, 81.06 °W | Updated 42 minutes ago

Clear
Clear
49 °F
Feels Like 49 °F
N
0
Wind Variable Wind from North

Today
High -- | Low -- °F
--% Chance of Precip.
Yesterday
High -- | Low -- °F
Precip. -- in
7:40 AM 6:36 PM
Waxing Crescent, 6% visible
Pressure 29.89 in
Visibility 10.0 miles
Clouds Clear
Dew Point 46 °F
Humidity 90%
Rainfall 0.00 in
Snow Depth Not available.
UV 0 out of 12
Pollen 3.00 out of 12
Ozone Good
PM2.5 Moderate
Flu Activity Local Activity
METAR KUZA 260754Z AUTO 00000KT 10SM CLR 09/08 A2991 RMK AO2 SLP122 T00940078 $

More Conditions Fewer Conditions

Pressure 29.89 in
Visibility 10.0 miles
Clouds Clear
Dew Point 46 °F
Humidity 90%
Rainfall 0.00 in
Snow Depth Not available.
UV 0 out of 12
Pollen 3.00 out of 12
Ozone Good
PM2.5 Moderate
Flu Activity Local Activity
METAR KUZA 260754Z AUTO 00000KT 10SM CLR 09/08 A2991 RMK AO2 SLP122 T00940078 $

More Conditions Fewer Conditions

10-Day Weather Forecast

Almanac

Astronomy

Oct. 26, 2014 Rise Set
Actual Time 7:40 AM EDT 6:36 PM EDT
Civil Twilight 7:14 AM EDT 7:02 PM EDT
Nautical Twilight 6:44 AM EDT 7:32 PM EDT
Astronomical Twilight 6:15 AM EDT 8:01 PM EDT
Moon 10:13 AM EDT 8:51 PM EDT
Length of Visible Light 11h 47m
Length of Day
10h 55m
Tomorrow will be 2m 0s shorter.
Waxing Crescent, 6% of the Moon is Illuminated
Today
Waxing Crescent
Oct 30
First Quarter
Nov 6
Full
Nov 14
Last Quarter
Nov 22
New

Today's Extremes

State Highs State Lows

Community

WunderPhotos

Upload Photos

1,765,127 photos uploaded!

Nearby

Air Quality

  Air Quality AQ Index Pollutant
Yesterday Good
PM2.5
Yesterday Good
OZONE
Current Moderate
PM2.5
Current Good
OZONE
Sunday Good
PM2.5
Sunday Good
OZONE
Monday Good
OZONE
Monday Good
PM2.5
Tuesday Moderate
PM2.5
Tuesday Good
OZONE

Snow Depth

Station Depth Elevation
No new snow has been reported.

Earthquake Activity

City Distance Mag. Time & Date
No recent earthquake activity has been reported nearby.
Minimum magnitude displayed is 2.5.

Coastal Water Temperatures

Place Temperature
No Stations Reporting

Nearby Weather Stations